Flight Track Log - Related Links

Times and Time Zones

All times are in EDT time to prevent confusion due to time zone crossing. See the EGF2564 flight status page for this flight to view local times or setup timezone preferences in your user account.

Time Position Orientation Groundspeed Altitude Reporting Facility
EDT Latitude Longitude Course Direction KTS MPH feet Rate Location/Type
Tue 10:50:00 PM 32.8633 -96.7758 99° East  Level Estimated
Tue 10:51:00 PM 32.8520 -96.6885 99° East  Level Estimated
Tue 10:52:00 PM 32.8407 -96.6011 99° East  Level Estimated
Tue 10:53:00 PM 32.8293 -96.5138 99° East  Level Estimated
Tue 10:54:00 PM 32.8178 -96.4265 99° East  Level Estimated
Tue 10:55:00 PM 32.8063 -96.3393 99° East  Level Estimated
Tue 10:56:00 PM 32.7947 -96.2520 99° East  Level Estimated
Tue 10:57:00 PM 32.7830 -96.1648 99° East  Level Estimated
Tue 10:58:00 PM 32.7713 -96.0776 99° East  Level Estimated
Tue 10:59:00 PM 32.7595 -95.9904 99° East  Level Estimated
Tue 11:00:00 PM 32.7477 -95.9033 99° East  Level Estimated
Tue 11:01:00 PM 32.7357 -95.8162 99° East  Level Estimated
Tue 11:02:00 PM 32.7238 -95.7291 99° East  Level Estimated
Tue 11:03:00 PM 32.7118 -95.6420 99° East  Level Estimated
Tue 11:04:00 PM 32.6997 -95.5549 99° East  Level Estimated
Tue 11:05:00 PM 32.6875 -95.4679 99° East  Level Estimated
Tue 11:06:00 PM 32.6754 -95.3809 99° East  Level Estimated
Tue 11:07:00 PM 32.6631 -95.2939 99° East  Level Estimated
Tue 11:08:00 PM 32.6508 -95.2069 100° East  Level Estimated
Tue 11:09:00 PM 32.6384 -95.1200 100° East  Level Estimated
Tue 11:10:00 PM 32.6259 -95.0331 100° East  Level Estimated
Tue 11:11:00 PM 32.6134 -94.9462 100° East  Level Estimated
Tue 11:12:00 PM 32.6009 -94.8593 100° East  Level Estimated
Tue 11:13:00 PM 32.5883 -94.7725 100° East  Level Estimated
Tue 11:14:00 PM 32.5756 -94.6857 100° East  Level Estimated
Tue 11:15:00 PM 32.5629 -94.5989 100° East  Level Estimated
Tue 11:16:00 PM 32.5501 -94.5121 100° East  Level Estimated
Tue 11:17:00 PM 32.5372 -94.4254 100° East  Level Estimated
Tue 11:18:00 PM 32.5243 -94.3387 100° East  Level Estimated
Tue 11:19:00 PM 32.5113 -94.2520 100° East  Level Estimated

Login

Don't have an account? Register now (free) for customized features, flight alerts, and more!